Time,TemperatureF,DewpointF,PressureIn,WindDirection,WindDirectionDegrees,WindSpeedMPH,WindSpeedGustMPH,Humidity,HourlyPrecipIn,Conditions,Clouds,dailyrainin,SolarRadiationWatts/m^2,SoftwareType,DateUTC
2013-03-10 00:02:00,43.0,19.0,-100.00,WNW,282,21.0,25.0,38,0.00,,,0.00,0.000000,,2013-03-10 05:02:00,
2013-03-10 00:22:00,45.0,17.0,-100.00,WNW,291,20.0,28.0,32,0.00,,,0.00,0.000000,,2013-03-10 05:22:00,
2013-03-10 00:32:00,45.0,17.0,-100.00,WNW,291,20.0,28.0,32,0.00,,,0.00,0.000000,,2013-03-10 05:32:00,
2013-03-10 00:42:00,45.0,17.0,-100.00,WNW,291,20.0,28.0,32,0.00,,,0.00,0.000000,,2013-03-10 05:42:00,
2013-03-10 00:52:00,45.0,17.0,-100.00,WNW,291,20.0,28.0,32,0.00,,,0.00,0.000000,,2013-03-10 05:52:00,
2013-03-10 01:02:00,45.0,17.0,-100.00,WNW,291,20.0,28.0,32,0.00,,,0.00,0.000000,,2013-03-10 06:02:00,
2013-03-10 01:32:00,45.0,14.0,-100.00,WNW,282,19.0,26.0,28,0.00,,,0.00,0.000000,,2013-03-10 06:32:00,
2013-03-10 01:42:00,45.0,14.0,-100.00,WNW,282,19.0,26.0,28,0.00,,,0.00,0.000000,,2013-03-10 06:42:00,
2013-03-10 01:52:00,45.0,14.0,-100.00,WNW,282,19.0,26.0,28,0.00,,,0.00,0.000000,,2013-03-10 06:52:00,
2013-03-10 03:02:00,45.0,14.0,-100.00,WNW,282,19.0,26.0,28,0.00,,,0.00,0.000000,,2013-03-10 07:02:00,
2013-03-10 03:32:00,45.0,15.0,-100.00,WNW,286,19.0,25.0,30,0.00,,,0.00,0.000000,,2013-03-10 07:32:00,
2013-03-10 03:42:00,45.0,15.0,-100.00,WNW,286,19.0,25.0,30,0.00,,,0.00,0.000000,,2013-03-10 07:42:00,
2013-03-10 03:52:00,45.0,15.0,-100.00,WNW,286,19.0,25.0,30,0.00,,,0.00,0.000000,,2013-03-10 07:52:00,
2013-03-10 04:01:00,45.0,15.0,-100.00,WNW,286,19.0,25.0,30,0.00,,,0.00,0.000000,,2013-03-10 08:01:00,
2013-03-10 04:32:00,44.0,14.0,-100.00,WNW,282,20.0,25.0,29,0.00,,,0.00,0.000000,,2013-03-10 08:32:00,
2013-03-10 04:42:00,44.0,14.0,-100.00,WNW,282,20.0,25.0,29,0.00,,,0.00,0.000000,,2013-03-10 08:42:00,
2013-03-10 04:52:00,44.0,14.0,-100.00,WNW,282,20.0,25.0,29,0.00,,,0.00,0.000000,,2013-03-10 08:52:00,
2013-03-10 05:02:00,44.0,14.0,-100.00,WNW,282,20.0,25.0,29,0.00,,,0.00,0.000000,,2013-03-10 09:02:00,
2013-03-10 05:32:00,43.0,11.0,-100.00,West,268,20.0,27.0,27,0.00,,,0.00,0.000000,,2013-03-10 09:32:00,
2013-03-10 05:42:00,43.0,11.0,-100.00,West,268,20.0,27.0,27,0.00,,,0.00,0.000000,,2013-03-10 09:42:00,
2013-03-10 05:52:00,43.0,11.0,-100.00,West,268,20.0,27.0,27,0.00,,,0.00,0.000000,,2013-03-10 09:52:00,
2013-03-10 06:01:00,43.0,11.0,-100.00,West,268,20.0,27.0,27,0.00,,,0.00,0.000000,,2013-03-10 10:01:00,
2013-03-10 06:32:00,42.0,15.0,-100.00,West,264,17.0,24.0,33,0.00,,,0.00,0.000000,,2013-03-10 10:32:00,
2013-03-10 06:42:00,42.0,15.0,-100.00,West,264,17.0,24.0,33,0.00,,,0.00,0.000000,,2013-03-10 10:42:00,
2013-03-10 06:52:00,42.0,15.0,-100.00,West,264,17.0,24.0,33,0.00,,,0.00,0.000000,,2013-03-10 10:52:00,
2013-03-10 07:01:00,42.0,15.0,-100.00,West,264,17.0,24.0,33,0.00,,,0.00,0.000000,,2013-03-10 11:01:00,
2013-03-10 10:32:00,43.0,17.0,-100.00,West,270,17.0,25.0,34,-99.99,,,0.00,163.000000,,2013-03-10 14:32:00,
2013-03-10 10:42:00,43.0,17.0,-100.00,West,270,17.0,25.0,34,-99.99,,,0.00,163.000000,,2013-03-10 14:42:00,
2013-03-10 10:52:00,43.0,17.0,-100.00,West,270,17.0,25.0,34,-99.99,,,0.00,163.000000,,2013-03-10 14:52:00,
2013-03-10 11:01:00,43.0,17.0,-100.00,West,270,17.0,25.0,34,-99.99,,,0.00,163.000000,,2013-03-10 15:01:00,
2013-03-10 11:32:00,43.0,17.0,-100.00,West,262,18.0,26.0,35,0.00,,,0.00,296.000000,,2013-03-10 15:32:00,
2013-03-10 11:42:00,43.0,17.0,-100.00,West,262,18.0,26.0,35,0.00,,,0.00,296.000000,,2013-03-10 15:42:00,
2013-03-10 11:52:00,43.0,17.0,-100.00,West,262,18.0,26.0,35,0.00,,,0.00,296.000000,,2013-03-10 15:52:00,
2013-03-10 12:02:00,43.0,17.0,-100.00,West,262,18.0,26.0,35,0.00,,,0.00,296.000000,,2013-03-10 16:02:00,
2013-03-10 12:22:00,48.0,21.0,-100.00,WSW,244,17.0,24.0,34,0.00,,,0.00,587.000000,,2013-03-10 16:22:00,
2013-03-10 12:32:00,48.0,21.0,-100.00,WSW,244,17.0,24.0,34,0.00,,,0.00,587.000000,,2013-03-10 16:32:00,
2013-03-10 12:42:00,48.0,21.0,-100.00,WSW,244,17.0,24.0,34,0.00,,,0.00,587.000000,,2013-03-10 16:42:00,
2013-03-10 12:52:00,48.0,21.0,-100.00,WSW,244,17.0,24.0,34,0.00,,,0.00,587.000000,,2013-03-10 16:52:00,
2013-03-10 13:01:00,48.0,21.0,-100.00,WSW,244,17.0,24.0,34,0.00,,,0.00,587.000000,,2013-03-10 17:01:00,
2013-03-10 15:32:00,52.0,27.0,-100.00,WSW,240,16.0,23.0,37,-99.99,,,-99.99,537.000000,,2013-03-10 19:32:00,
2013-03-10 15:42:00,52.0,27.0,-100.00,WSW,240,16.0,23.0,37,-99.99,,,-99.99,537.000000,,2013-03-10 19:42:00,
2013-03-10 15:53:00,52.0,27.0,-100.00,WSW,240,16.0,23.0,37,-99.99,,,-99.99,537.000000,,2013-03-10 19:53:00,
2013-03-10 16:02:00,52.0,27.0,-100.00,WSW,240,16.0,23.0,37,-99.99,,,-99.99,537.000000,,2013-03-10 20:02:00,
2013-03-10 16:22:00,51.0,25.0,-100.00,WSW,243,17.0,26.0,36,0.00,,,0.00,347.000000,,2013-03-10 20:22:00,
2013-03-10 16:33:00,51.0,25.0,-100.00,WSW,243,17.0,26.0,36,0.00,,,0.00,347.000000,,2013-03-10 20:33:00,
2013-03-10 16:43:00,51.0,25.0,-100.00,WSW,243,17.0,26.0,36,0.00,,,0.00,347.000000,,2013-03-10 20:43:00,
2013-03-10 16:53:00,51.0,25.0,-100.00,WSW,243,17.0,26.0,36,0.00,,,0.00,347.000000,,2013-03-10 20:53:00,
2013-03-10 17:02:00,51.0,25.0,-100.00,WSW,243,17.0,26.0,36,0.00,,,0.00,347.000000,,2013-03-10 21:02:00,
2013-03-10 17:03:00,52.0,26.0,-100.00,WSW,251,19.0,28.0,36,0.00,,,0.00,279.000000,,2013-03-10 21:03:00,
2013-03-10 17:33:00,52.0,26.0,-100.00,WSW,251,19.0,28.0,36,0.00,,,0.00,279.000000,,2013-03-10 21:33:00,
2013-03-10 17:43:00,52.0,26.0,-100.00,WSW,251,19.0,28.0,36,0.00,,,0.00,279.000000,,2013-03-10 21:43:00,
2013-03-10 17:53:00,52.0,26.0,-100.00,WSW,251,19.0,28.0,36,0.00,,,0.00,279.000000,,2013-03-10 21:53:00,
2013-03-10 18:03:00,49.0,24.0,-100.00,West,259,20.0,28.0,37,0.00,,,0.00,256.000000,,2013-03-10 22:03:00,
2013-03-10 18:33:00,49.0,24.0,-100.00,West,259,20.0,28.0,37,0.00,,,0.00,256.000000,,2013-03-10 22:33:00,
2013-03-10 18:43:00,49.0,24.0,-100.00,West,259,20.0,28.0,37,0.00,,,0.00,256.000000,,2013-03-10 22:43:00,
2013-03-10 18:53:00,49.0,24.0,-100.00,West,259,20.0,28.0,37,0.00,,,0.00,256.000000,,2013-03-10 22:53:00,
2013-03-10 19:33:00,45.0,22.0,-100.00,WSW,254,20.0,27.0,40,0.00,,,0.00,97.000000,,2013-03-10 23:33:00,
2013-03-10 19:43:00,45.0,22.0,-100.00,WSW,254,20.0,27.0,40,0.00,,,0.00,97.000000,,2013-03-10 23:43:00,
2013-03-10 19:53:00,45.0,22.0,-100.00,WSW,254,20.0,27.0,40,0.00,,,0.00,97.000000,,2013-03-10 23:53:00,
2013-03-10 20:02:00,45.0,22.0,-100.00,WSW,254,20.0,27.0,40,0.00,,,0.00,97.000000,,2013-03-11 00:02:00,
2013-03-10 20:03:00,43.0,24.0,-100.00,WSW,252,26.0,33.0,46,0.00,,,0.00,13.000000,,2013-03-11 00:03:00,
2013-03-10 20:33:00,43.0,24.0,-100.00,WSW,252,26.0,33.0,46,0.00,,,0.00,13.000000,,2013-03-11 00:33:00,
2013-03-10 20:43:00,43.0,24.0,-100.00,WSW,252,26.0,33.0,46,0.00,,,0.00,13.000000,,2013-03-11 00:43:00,
2013-03-10 20:53:00,43.0,24.0,-100.00,WSW,252,26.0,33.0,46,0.00,,,0.00,13.000000,,2013-03-11 00:53:00,
2013-03-10 21:33:00,41.0,25.0,-100.00,WSW,245,29.0,39.0,52,0.00,,,0.00,0.000000,,2013-03-11 01:33:00,
2013-03-10 21:43:00,41.0,25.0,-100.00,WSW,245,29.0,39.0,52,0.00,,,0.00,0.000000,,2013-03-11 01:43:00,
2013-03-10 21:53:00,41.0,25.0,-100.00,WSW,245,29.0,39.0,52,0.00,,,0.00,0.000000,,2013-03-11 01:53:00,
2013-03-10 22:02:00,41.0,25.0,-100.00,WSW,245,29.0,39.0,52,0.00,,,0.00,0.000000,,2013-03-11 02:02:00,
2013-03-10 22:32:00,40.0,26.0,-100.00,WSW,247,32.0,39.0,57,0.00,,,0.00,0.000000,,2013-03-11 02:32:00,
2013-03-10 22:42:00,40.0,26.0,-100.00,WSW,247,32.0,39.0,57,0.00,,,0.00,0.000000,,2013-03-11 02:42:00,
2013-03-10 22:53:00,40.0,26.0,-100.00,WSW,247,32.0,39.0,57,0.00,,,0.00,0.000000,,2013-03-11 02:53:00,
2013-03-10 23:02:00,40.0,26.0,-100.00,WSW,247,32.0,39.0,57,0.00,,,0.00,0.000000,,2013-03-11 03:02:00,
2013-03-10 23:03:00,40.0,28.0,-100.00,WSW,244,33.0,42.0,61,0.00,,,0.00,0.000000,,2013-03-11 03:03:00,
2013-03-10 23:32:00,40.0,28.0,-100.00,WSW,244,33.0,42.0,61,0.00,,,0.00,0.000000,,2013-03-11 03:32:00,
2013-03-10 23:43:00,40.0,28.0,-100.00,WSW,244,33.0,42.0,61,0.00,,,0.00,0.000000,,2013-03-11 03:43:00,
2013-03-10 23:53:00,40.0,28.0,-100.00,WSW,244,33.0,42.0,61,0.00,,,0.00,0.000000,,2013-03-11 03:53:00,